Terminal Aerodrome Forecast
Issued by NWS

Home | Current Version | Previous Version | Text Only | Print | Product List | Glossary On
Versions: 1 2 3 4 5 6 7 8 9 10 11 12
000
FTUS42 TJSJ 240520
TAFJMZ
TAF
TJMZ 240520Z 2406/2506 05003KT P6SM FEW040 SCT100
     FM241450 07006KT P6SM SCT035
     FM241930 32010KT P6SM VCTS SCT025CB BKN040
     FM242230 06006KT P6SM VCSH SCT035 BKN070
      AMD NOT SKED=

USA.gov is the U.S. government's official web portal to all federal, state and local government web resources and services.